Map

Track Data

SID SEASON NUMBER BASIN SUBBASIN NAME ISO_TIME NATURE LAT LON WMO_WIND WMO_PRES WMO_AGENCY TRACK_TYPE DIST2LAND LANDFALL IFLAG USA_AGENCY USA_ATCF_ID USA_LAT USA_LON USA_RECORD USA_STATUS USA_WIND USA_PRES USA_SSHS USA_R34_NE USA_R34_SE USA_R34_SW USA_R34_NW USA_R50_NE USA_R50_SE USA_R50_SW USA_R50_NW USA_R64_NE USA_R64_SE USA_R64_SW USA_R64_NW USA_POCI USA_ROCI USA_RMW USA_EYE TOKYO_LAT TOKYO_LON TOKYO_GRADE TOKYO_WIND TOKYO_PRES TOKYO_R50_DIR TOKYO_R50_LONG TOKYO_R50_SHORT TOKYO_R30_DIR TOKYO_R30_LONG TOKYO_R30_SHORT TOKYO_LAND CMA_LAT CMA_LON CMA_CAT CMA_WIND CMA_PRES HKO_LAT HKO_LON HKO_CAT HKO_WIND HKO_PRES NEWDELHI_LAT NEWDELHI_LON NEWDELHI_GRADE NEWDELHI_WIND NEWDELHI_PRES NEWDELHI_CI NEWDELHI_DP NEWDELHI_POCI REUNION_LAT REUNION_LON REUNION_TYPE REUNION_WIND REUNION_PRES REUNION_TNUM REUNION_CI REUNION_RMW REUNION_R34_NE REUNION_R34_SE REUNION_R34_SW REUNION_R34_NW REUNION_R50_NE REUNION_R50_SE REUNION_R50_SW REUNION_R50_NW REUNION_R64_NE REUNION_R64_SE REUNION_R64_SW REUNION_R64_NW BOM_LAT BOM_LON BOM_TYPE BOM_WIND BOM_PRES BOM_TNUM BOM_CI BOM_RMW BOM_R34_NE BOM_R34_SE BOM_R34_SW BOM_R34_NW BOM_R50_NE BOM_R50_SE BOM_R50_SW BOM_R50_NW BOM_R64_NE BOM_R64_SE BOM_R64_SW BOM_R64_NW BOM_ROCI BOM_POCI BOM_EYE BOM_POS_METHOD BOM_PRES_METHOD NADI_LAT NADI_LON NADI_CAT NADI_WIND NADI_PRES WELLINGTON_LAT WELLINGTON_LON WELLINGTON_WIND WELLINGTON_PRES DS824_LAT DS824_LON DS824_STAGE DS824_WIND DS824_PRES TD9636_LAT TD9636_LON TD9636_STAGE TD9636_WIND TD9636_PRES TD9635_LAT TD9635_LON TD9635_WIND TD9635_PRES TD9635_ROCI NEUMANN_LAT NEUMANN_LON NEUMANN_CLASS NEUMANN_WIND NEUMANN_PRES MLC_LAT MLC_LON MLC_CLASS MLC_WIND MLC_PRES USA_GUST BOM_GUST BOM_GUST_PER REUNION_GUST REUNION_GUST_PER USA_SEAHGT USA_SEARAD_NE USA_SEARAD_SE USA_SEARAD_SW USA_SEARAD_NW STORM_SPEED STORM_DIR
1946249N14125 1946 49 WP MM NOT_NAMED 1946-09-05 12:00:00 NR 13.7000 124.500 main 10 0 __________O___ -1 13.7000 124.500 3 30 315
1946249N14125 1946 49 WP MM NOT_NAMED 1946-09-05 15:00:00 NR 14.7543 123.400 main 86 54 __________P___ -1 14.7543 123.400 3 30 314
1946249N14125 1946 49 WP MM NOT_NAMED 1946-09-05 18:00:00 NR 15.7453 122.304 main 46 0 __________P___ -1 15.7453 122.304 3 28 312
1946249N14125 1946 49 WP MM NOT_NAMED 1946-09-05 21:00:00 NR 16.6133 121.232 main 0 0 __________P___ -1 16.6133 121.232 3 26 308
1946249N14125 1946 49 WP MM NOT_NAMED 1946-09-06 00:00:00 NR 17.3000 120.200 main 24 24 __________O___ -1 17.3000 120.200 4 22 301
1946249N14125 1946 49 WP MM NOT_NAMED 1946-09-06 03:00:00 NR 17.7687 119.225 main 118 118 __________P___ -1 17.7687 119.225 4 20 293
1946249N14125 1946 49 WP MM NOT_NAMED 1946-09-06 06:00:00 NR 18.0648 118.305 main 218 218 __________P___ -1 18.0648 118.305 4 18 286
1946249N14125 1946 49 WP MM NOT_NAMED 1946-09-06 09:00:00 NR 18.2536 117.432 main 316 316 __________P___ -1 18.2536 117.432 4 17 282
1946249N14125 1946 49 WP MM NOT_NAMED 1946-09-06 12:00:00 NR 18.4000 116.600 main 401 401 __________O___ -1 18.4000 116.600 4 16 283
1946249N14125 1946 49 WP MM NOT_NAMED 1946-09-06 15:00:00 NR 18.6154 115.740 main 438 398 __________P___ -1 18.6154 115.740 4 16 284
1946249N14125 1946 49 WP MM NOT_NAMED 1946-09-06 18:00:00 NR 18.8021 114.922 main 396 342 __________P___ -1 18.8021 114.922 4 15 283
1946249N14125 1946 49 WP MM NOT_NAMED 1946-09-06 21:00:00 NR 18.9627 114.168 main 342 268 __________P___ -1 18.9627 114.168 4 14 282
1946249N14125 1946 49 WP MM NOT_NAMED 1946-09-07 00:00:00 NR 19.1000 113.500 main 268 214 __________O___ -1 19.1000 113.500 4 12 282
1946249N14125 1946 49 WP MM NOT_NAMED 1946-09-07 03:00:00 NR 19.2119 112.922 main 204 160 __________P___ -1 19.2119 112.922 4 10 282
1946249N14125 1946 49 WP MM NOT_NAMED 1946-09-07 06:00:00 NR 19.3057 112.429 main 150 107 __________P___ -1 19.3057 112.429 4 9 282
1946249N14125 1946 49 WP MM NOT_NAMED 1946-09-07 09:00:00 NR 19.3967 111.997 main 107 63 __________P___ -1 19.3967 111.997 4 8 284
1946249N14125 1946 49 WP MM NOT_NAMED 1946-09-07 12:00:00 NR 19.5000 111.600 main 63 20 __________O___ -1 19.5000 111.600 4 8 287
1946249N14125 1946 49 WP MM NOT_NAMED 1946-09-07 15:00:00 NR 19.6267 111.217 main 20 0 __________P___ -1 19.6267 111.217 4 8 291
1946249N14125 1946 49 WP MM NOT_NAMED 1946-09-07 18:00:00 NR 19.7736 110.841 main 0 0 __________P___ -1 19.7736 110.841 4 8 294
1946249N14125 1946 49 WP MM NOT_NAMED 1946-09-07 21:00:00 NR 19.9337 110.470 main 0 0 __________P___ -1 19.9337 110.470 4 8 295
1946249N14125 1946 49 WP MM NOT_NAMED 1946-09-08 00:00:00 NR 20.1000 110.100 main 11 __________O___ -1 20.1000 110.100 4 8 296

Digital Typhoon Data and Search

About IBTrACS Database

This database is a web-friendly format of International Best Track Archive for Climate Stewardship (IBTrACS), a global best track data archive curated by NOAA dating back to 1842.

Updated: 2021-10-27